<?xml version='1.0' encoding='UTF-8'?>
<gpx xmlns="http://www.topografix.com/GPX/1/1" creator="www.balnam.be" version="1.1" xmlns:xsi="http://www.w3.org/2001/XMLSchema-instance" xsi:schemaLocation="http://www.topografix.com/GPX/1/1 http://www.topografix.com/GPX/1/1/gpx.xsd">
<trk>
<name>louhe1</name>
<cmt>s</cmt>
<desc>Hermée Chemin n°1 Rue du Comptoir</desc>
<link href="https://chemins.be/hermee/chemin/1"/><trkseg>
<trkpt lat="50.700640" lon="5.617197"><time>2026-05-02T18:08:10Z</time></trkpt>
<trkpt lat="50.701456" lon="5.617631"><time>2026-05-02T18:18:10Z</time></trkpt>
</trkseg></trk>
<trk>
<name>louhe1</name>
<cmt>r</cmt>
<desc>Hermée Chemin n°1 Rue du Comptoir</desc>
<link href="https://chemins.be/hermee/chemin/1"/><trkseg>
<trkpt lat="50.701456" lon="5.617631"><time>2026-05-02T18:18:10Z</time></trkpt>
<trkpt lat="50.702750" lon="5.618431"><time>2026-05-02T18:28:10Z</time></trkpt>
<trkpt lat="50.704400" lon="5.619474"><time>2026-05-02T18:38:10Z</time></trkpt>
<trkpt lat="50.707368" lon="5.620770"><time>2026-05-02T18:48:10Z</time></trkpt>
<trkpt lat="50.708466" lon="5.621253"><time>2026-05-02T18:58:10Z</time></trkpt>
<trkpt lat="50.710221" lon="5.622025"><time>2026-05-02T19:08:10Z</time></trkpt>
<trkpt lat="50.712495" lon="5.624424"><time>2026-05-02T19:18:10Z</time></trkpt>
<trkpt lat="50.712785" lon="5.624756"><time>2026-05-02T19:28:10Z</time></trkpt>
</trkseg>
</trk>
<trk>
<name>louhe11</name>
<cmt>r</cmt>
<desc>Hermée Sentier n°11 Rue du Broux / Rue de la Haxhe</desc>
<link href="https://chemins.be/hermee/sentier/11"/><trkseg>
<trkpt lat="50.715554" lon="5.618804"><time>2026-05-02T18:08:10Z</time></trkpt>
<trkpt lat="50.714256" lon="5.618067"><time>2026-05-02T18:18:10Z</time></trkpt>
<trkpt lat="50.713978" lon="5.615779"><time>2026-05-02T18:28:10Z</time></trkpt>
<trkpt lat="50.714395" lon="5.614205"><time>2026-05-02T18:38:10Z</time></trkpt>
<trkpt lat="50.714380" lon="5.613476"><time>2026-05-02T18:48:10Z</time></trkpt>
</trkseg></trk>
<trk>
<name>louhe11</name>
<cmt>q</cmt>
<desc>Hermée Sentier n°11 Rue du Broux / Rue de la Haxhe</desc>
<link href="https://chemins.be/hermee/sentier/11"/><trkseg>
<trkpt lat="50.714380" lon="5.613476"><time>2026-05-02T18:48:10Z</time></trkpt>
<trkpt lat="50.714137" lon="5.611172"><time>2026-05-02T18:58:10Z</time></trkpt>
<trkpt lat="50.713543" lon="5.610478"><time>2026-05-02T19:08:10Z</time></trkpt>
</trkseg>
</trk>
<trk>
<name>louhe13</name>
<cmt>d</cmt>
<desc>Hermée Chemin n°13 </desc>
<link href="https://chemins.be/hermee/chemin/13"/><trkseg>
<trkpt lat="50.718752" lon="5.623036"><time>2026-05-02T18:08:10Z</time></trkpt>
<trkpt lat="50.719031" lon="5.622646"><time>2026-05-02T18:18:10Z</time></trkpt>
<trkpt lat="50.719362" lon="5.623150"><time>2026-05-02T18:28:10Z</time></trkpt>
<trkpt lat="50.720023" lon="5.622453"><time>2026-05-02T18:38:10Z</time></trkpt>
<trkpt lat="50.720374" lon="5.621655"><time>2026-05-02T18:48:10Z</time></trkpt>
</trkseg>
</trk>
<trk>
<name>louhe16</name>
<cmt>v</cmt>
<desc>Hermée Chemin n°16 Chemin de Launis</desc>
<link href="https://chemins.be/hermee/chemin/16"/><trkseg>
<trkpt lat="50.718288" lon="5.616546"><time>2026-05-02T18:08:10Z</time></trkpt>
<trkpt lat="50.718804" lon="5.616213"><time>2026-05-02T18:18:10Z</time></trkpt>
<trkpt lat="50.719218" lon="5.615559"><time>2026-05-02T18:28:10Z</time></trkpt>
<trkpt lat="50.719422" lon="5.614904"><time>2026-05-02T18:38:10Z</time></trkpt>
<trkpt lat="50.719429" lon="5.613906"><time>2026-05-02T18:48:10Z</time></trkpt>
</trkseg>
</trk>
<trk>
<name>louhe19</name>
<cmt>q</cmt>
<desc>Hermée Sentier n°19 </desc>
<link href="https://chemins.be/hermee/sentier/19"/><trkseg>
<trkpt lat="50.711568" lon="5.613195"><time>2026-05-02T18:08:10Z</time></trkpt>
<trkpt lat="50.712827" lon="5.612122"><time>2026-05-02T18:18:10Z</time></trkpt>
<trkpt lat="50.713522" lon="5.610497"><time>2026-05-02T18:28:10Z</time></trkpt>
<trkpt lat="50.713896" lon="5.609332"><time>2026-05-02T18:38:10Z</time></trkpt>
<trkpt lat="50.714879" lon="5.606108"><time>2026-05-02T18:48:10Z</time></trkpt>
</trkseg>
</trk>
<trk>
<name>louhe2</name>
<cmt>v</cmt>
<desc>Hermée Chemin n°2 Rue du Garage</desc>
<link href="https://chemins.be/hermee/chemin/2"/><trkseg>
<trkpt lat="50.707993" lon="5.630067"><time>2026-05-02T18:08:10Z</time></trkpt>
<trkpt lat="50.706563" lon="5.625801"><time>2026-05-02T18:18:10Z</time></trkpt>
</trkseg></trk>
<trk>
<name>louhe2</name>
<cmt>r</cmt>
<desc>Hermée Chemin n°2 Rue du Garage</desc>
<link href="https://chemins.be/hermee/chemin/2"/><trkseg>
<trkpt lat="50.706563" lon="5.625801"><time>2026-05-02T18:18:10Z</time></trkpt>
<trkpt lat="50.705987" lon="5.623913"><time>2026-05-02T18:28:10Z</time></trkpt>
<trkpt lat="50.705732" lon="5.621742"><time>2026-05-02T18:38:10Z</time></trkpt>
</trkseg></trk>
<trk>
<name>louhe2</name>
<cmt>s</cmt>
<desc>Hermée Chemin n°2 Rue du Garage</desc>
<link href="https://chemins.be/hermee/chemin/2"/><trkseg>
<trkpt lat="50.705732" lon="5.621742"><time>2026-05-02T18:38:10Z</time></trkpt>
<trkpt lat="50.705351" lon="5.619939"><time>2026-05-02T18:48:10Z</time></trkpt>
<trkpt lat="50.705049" lon="5.618060"><time>2026-05-02T18:58:10Z</time></trkpt>
</trkseg></trk>
<trk>
<name>louhe2</name>
<cmt>r</cmt>
<desc>Hermée Chemin n°2 Rue du Garage</desc>
<link href="https://chemins.be/hermee/chemin/2"/><trkseg>
<trkpt lat="50.705049" lon="5.618060"><time>2026-05-02T18:58:10Z</time></trkpt>
<trkpt lat="50.704791" lon="5.616463"><time>2026-05-02T19:08:10Z</time></trkpt>
<trkpt lat="50.704052" lon="5.615665"><time>2026-05-02T19:18:10Z</time></trkpt>
</trkseg></trk>
<trk>
<name>louhe2</name>
<cmt>v</cmt>
<desc>Hermée Chemin n°2 Rue du Garage</desc>
<link href="https://chemins.be/hermee/chemin/2"/><trkseg>
<trkpt lat="50.704052" lon="5.615665"><time>2026-05-02T19:18:10Z</time></trkpt>
<trkpt lat="50.704509" lon="5.614447"><time>2026-05-02T19:28:10Z</time></trkpt>
<trkpt lat="50.703693" lon="5.611314"><time>2026-05-02T19:38:10Z</time></trkpt>
<trkpt lat="50.703530" lon="5.608996"><time>2026-05-02T19:48:10Z</time></trkpt>
</trkseg></trk>
<trk>
<name>louhe2</name>
<cmt>d</cmt>
<desc>Hermée Chemin n°2 Rue du Garage</desc>
<link href="https://chemins.be/hermee/chemin/2"/><trkseg>
<trkpt lat="50.703530" lon="5.608996"><time>2026-05-02T19:48:10Z</time></trkpt>
<trkpt lat="50.703347" lon="5.608155"><time>2026-05-02T19:58:10Z</time></trkpt>
<trkpt lat="50.702786" lon="5.606831"><time>2026-05-02T20:08:10Z</time></trkpt>
<trkpt lat="50.702434" lon="5.605383"><time>2026-05-02T20:18:10Z</time></trkpt>
<trkpt lat="50.702341" lon="5.603284"><time>2026-05-02T20:28:10Z</time></trkpt>
<trkpt lat="50.702712" lon="5.600450"><time>2026-05-02T20:38:10Z</time></trkpt>
<trkpt lat="50.701364" lon="5.593258"><time>2026-05-02T20:48:10Z</time></trkpt>
</trkseg>
</trk>
<trk>
<name>louhe23</name>
<cmt>r</cmt>
<desc>Hermée Sentier n°23 </desc>
<link href="https://chemins.be/hermee/sentier/23"/><trkseg>
<trkpt lat="50.708376" lon="5.620561"><time>2026-05-02T18:08:10Z</time></trkpt>
<trkpt lat="50.708779" lon="5.619048"><time>2026-05-02T18:18:10Z</time></trkpt>
<trkpt lat="50.708933" lon="5.619005"><time>2026-05-02T18:28:10Z</time></trkpt>
</trkseg></trk>
<trk>
<name>louhe23</name>
<cmt>s</cmt>
<desc>Hermée Sentier n°23 </desc>
<link href="https://chemins.be/hermee/sentier/23"/><trkseg>
<trkpt lat="50.708933" lon="5.619005"><time>2026-05-02T18:28:10Z</time></trkpt>
<trkpt lat="50.709205" lon="5.618612"><time>2026-05-02T18:38:10Z</time></trkpt>
<trkpt lat="50.709221" lon="5.618104"><time>2026-05-02T18:48:10Z</time></trkpt>
</trkseg>
</trk>
<trk>
<name>louhe24</name>
<cmt>r</cmt>
<desc>Hermée Sentier n°24 </desc>
<link href="https://chemins.be/hermee/sentier/24"/><trkseg>
<trkpt lat="50.707963" lon="5.618668"><time>2026-05-02T18:08:10Z</time></trkpt>
<trkpt lat="50.708756" lon="5.619020"><time>2026-05-02T18:18:10Z</time></trkpt>
</trkseg>
</trk>
<trk>
<name>louhe27</name>
<cmt>v</cmt>
<desc>Hermée Sentier n°27 Sentier Guérin / Rue de la Haxhe</desc>
<link href="https://chemins.be/hermee/sentier/27"/><trkseg>
<trkpt lat="50.712261" lon="5.615764"><time>2026-05-02T18:08:10Z</time></trkpt>
<trkpt lat="50.712419" lon="5.615230"><time>2026-05-02T18:18:10Z</time></trkpt>
<trkpt lat="50.712960" lon="5.615131"><time>2026-05-02T18:28:10Z</time></trkpt>
<trkpt lat="50.713118" lon="5.614668"><time>2026-05-02T18:38:10Z</time></trkpt>
<trkpt lat="50.713448" lon="5.614931"><time>2026-05-02T18:48:10Z</time></trkpt>
<trkpt lat="50.713708" lon="5.614145"><time>2026-05-02T18:58:10Z</time></trkpt>
<trkpt lat="50.714133" lon="5.613859"><time>2026-05-02T19:08:10Z</time></trkpt>
<trkpt lat="50.714367" lon="5.613490"><time>2026-05-02T19:18:10Z</time></trkpt>
</trkseg></trk>
<trk>
<name>louhe27</name>
<cmt>r</cmt>
<desc>Hermée Sentier n°27 Sentier Guérin / Rue de la Haxhe</desc>
<link href="https://chemins.be/hermee/sentier/27"/><trkseg>
<trkpt lat="50.714367" lon="5.613490"><time>2026-05-02T19:18:10Z</time></trkpt>
<trkpt lat="50.715518" lon="5.611530"><time>2026-05-02T19:28:10Z</time></trkpt>
<trkpt lat="50.715554" lon="5.610479"><time>2026-05-02T19:38:10Z</time></trkpt>
</trkseg>
</trk>
<trk>
<name>louhe28</name>
<cmt>v</cmt>
<desc>Hermée Sentier n°28 Sentier Guérin / Rue Haie Martin / Rue des Néfliers</desc>
<link href="https://chemins.be/hermee/sentier/28"/><trkseg>
<trkpt lat="50.702964" lon="5.600401"><time>2026-05-02T18:08:10Z</time></trkpt>
<trkpt lat="50.703163" lon="5.600691"><time>2026-05-02T18:18:10Z</time></trkpt>
<trkpt lat="50.705461" lon="5.605023"><time>2026-05-02T18:28:10Z</time></trkpt>
<trkpt lat="50.706059" lon="5.606120"><time>2026-05-02T18:38:10Z</time></trkpt>
<trkpt lat="50.706487" lon="5.607077"><time>2026-05-02T18:48:10Z</time></trkpt>
</trkseg></trk>
<trk>
<name>louhe28</name>
<cmt>r</cmt>
<desc>Hermée Sentier n°28 Sentier Guérin / Rue Haie Martin / Rue des Néfliers</desc>
<link href="https://chemins.be/hermee/sentier/28"/><trkseg>
<trkpt lat="50.706487" lon="5.607077"><time>2026-05-02T18:48:10Z</time></trkpt>
<trkpt lat="50.707885" lon="5.609954"><time>2026-05-02T18:58:10Z</time></trkpt>
</trkseg></trk>
<trk>
<name>louhe28</name>
<cmt>v</cmt>
<desc>Hermée Sentier n°28 Sentier Guérin / Rue Haie Martin / Rue des Néfliers</desc>
<link href="https://chemins.be/hermee/sentier/28"/><trkseg>
<trkpt lat="50.707885" lon="5.609954"><time>2026-05-02T18:58:10Z</time></trkpt>
<trkpt lat="50.708380" lon="5.610408"><time>2026-05-02T19:08:10Z</time></trkpt>
<trkpt lat="50.709690" lon="5.611108"><time>2026-05-02T19:18:10Z</time></trkpt>
<trkpt lat="50.710252" lon="5.611540"><time>2026-05-02T19:28:10Z</time></trkpt>
<trkpt lat="50.710618" lon="5.611848"><time>2026-05-02T19:38:10Z</time></trkpt>
</trkseg></trk>
<trk>
<name>louhe28</name>
<cmt>r</cmt>
<desc>Hermée Sentier n°28 Sentier Guérin / Rue Haie Martin / Rue des Néfliers</desc>
<link href="https://chemins.be/hermee/sentier/28"/><trkseg>
<trkpt lat="50.710618" lon="5.611848"><time>2026-05-02T19:38:10Z</time></trkpt>
<trkpt lat="50.711526" lon="5.613040"><time>2026-05-02T19:48:10Z</time></trkpt>
</trkseg></trk>
<trk>
<name>louhe28</name>
<cmt>v</cmt>
<desc>Hermée Sentier n°28 Sentier Guérin / Rue Haie Martin / Rue des Néfliers</desc>
<link href="https://chemins.be/hermee/sentier/28"/><trkseg>
<trkpt lat="50.711526" lon="5.613040"><time>2026-05-02T19:48:10Z</time></trkpt>
<trkpt lat="50.711602" lon="5.613452"><time>2026-05-02T19:58:10Z</time></trkpt>
<trkpt lat="50.711744" lon="5.613626"><time>2026-05-02T20:08:10Z</time></trkpt>
<trkpt lat="50.712154" lon="5.613977"><time>2026-05-02T20:18:10Z</time></trkpt>
<trkpt lat="50.712645" lon="5.614358"><time>2026-05-02T20:28:10Z</time></trkpt>
<trkpt lat="50.713475" lon="5.614918"><time>2026-05-02T20:38:10Z</time></trkpt>
<trkpt lat="50.714090" lon="5.615430"><time>2026-05-02T20:48:10Z</time></trkpt>
<trkpt lat="50.714580" lon="5.615868"><time>2026-05-02T20:58:10Z</time></trkpt>
<trkpt lat="50.714855" lon="5.616172"><time>2026-05-02T21:08:10Z</time></trkpt>
<trkpt lat="50.714998" lon="5.616289"><time>2026-05-02T21:18:10Z</time></trkpt>
<trkpt lat="50.716429" lon="5.616950"><time>2026-05-02T21:28:10Z</time></trkpt>
<trkpt lat="50.717319" lon="5.617002"><time>2026-05-02T21:38:10Z</time></trkpt>
</trkseg></trk>
<trk>
<name>louhe28</name>
<cmt>s</cmt>
<desc>Hermée Sentier n°28 Sentier Guérin / Rue Haie Martin / Rue des Néfliers</desc>
<link href="https://chemins.be/hermee/sentier/28"/><trkseg>
<trkpt lat="50.717319" lon="5.617002"><time>2026-05-02T21:38:10Z</time></trkpt>
<trkpt lat="50.717550" lon="5.616981"><time>2026-05-02T21:48:10Z</time></trkpt>
<trkpt lat="50.718003" lon="5.617850"><time>2026-05-02T21:58:10Z</time></trkpt>
</trkseg></trk>
<trk>
<name>louhe28</name>
<cmt>q</cmt>
<desc>Hermée Sentier n°28 Sentier Guérin / Rue Haie Martin / Rue des Néfliers</desc>
<link href="https://chemins.be/hermee/sentier/28"/><trkseg>
<trkpt lat="50.718003" lon="5.617850"><time>2026-05-02T21:58:10Z</time></trkpt>
<trkpt lat="50.717849" lon="5.619045"><time>2026-05-02T22:08:10Z</time></trkpt>
<trkpt lat="50.717822" lon="5.619774"><time>2026-05-02T22:18:10Z</time></trkpt>
</trkseg></trk>
<trk>
<name>louhe28</name>
<cmt>v</cmt>
<desc>Hermée Sentier n°28 Sentier Guérin / Rue Haie Martin / Rue des Néfliers</desc>
<link href="https://chemins.be/hermee/sentier/28"/><trkseg>
<trkpt lat="50.717822" lon="5.619774"><time>2026-05-02T22:18:10Z</time></trkpt>
<trkpt lat="50.717894" lon="5.620686"><time>2026-05-02T22:28:10Z</time></trkpt>
<trkpt lat="50.718082" lon="5.621620"><time>2026-05-02T22:38:10Z</time></trkpt>
<trkpt lat="50.718694" lon="5.622895"><time>2026-05-02T22:48:10Z</time></trkpt>
</trkseg>
</trk>
<trk>
<name>louhe28bis</name>
<cmt>v</cmt>
<desc>Hermée Sentier n°28bis Sentier Guérin</desc>
<link href="https://chemins.be/hermee/sentier/28bis"/><trkseg>
<trkpt lat="50.717313" lon="5.617023"><time>2026-05-02T18:08:10Z</time></trkpt>
<trkpt lat="50.717286" lon="5.616422"><time>2026-05-02T18:18:10Z</time></trkpt>
<trkpt lat="50.718268" lon="5.616272"><time>2026-05-02T18:28:10Z</time></trkpt>
</trkseg>
</trk>
<trk>
<name>louhe29</name>
<cmt>v</cmt>
<desc>Hermée Sentier n°29 </desc>
<link href="https://chemins.be/hermee/sentier/29"/><trkseg>
<trkpt lat="50.710167" lon="5.614802"><time>2026-05-02T18:08:10Z</time></trkpt>
<trkpt lat="50.710291" lon="5.615032"><time>2026-05-02T18:18:10Z</time></trkpt>
<trkpt lat="50.710252" lon="5.615314"><time>2026-05-02T18:28:10Z</time></trkpt>
<trkpt lat="50.710859" lon="5.615670"><time>2026-05-02T18:38:10Z</time></trkpt>
<trkpt lat="50.711216" lon="5.615963"><time>2026-05-02T18:48:10Z</time></trkpt>
<trkpt lat="50.711020" lon="5.616623"><time>2026-05-02T18:58:10Z</time></trkpt>
</trkseg>
</trk>
<trk>
<name>louhe2bis</name>
<cmt>v</cmt>
<desc>Hermée Chemin n°2bis Voye de Vignis</desc>
<link href="https://chemins.be/hermee/chemin/2bis"/><trkseg>
<trkpt lat="50.705373" lon="5.627323"><time>2026-05-02T18:08:10Z</time></trkpt>
<trkpt lat="50.704612" lon="5.629379"><time>2026-05-02T18:18:10Z</time></trkpt>
<trkpt lat="50.704509" lon="5.632250"><time>2026-05-02T18:28:10Z</time></trkpt>
</trkseg>
</trk>
<trk>
<name>louhe3</name>
<cmt>v</cmt>
<desc>Hermée Chemin n°3 Rue Haie Martin</desc>
<link href="https://chemins.be/hermee/chemin/3"/><trkseg>
<trkpt lat="50.700052" lon="5.598847"><time>2026-05-02T18:08:10Z</time></trkpt>
<trkpt lat="50.702650" lon="5.600333"><time>2026-05-02T18:18:10Z</time></trkpt>
<trkpt lat="50.702951" lon="5.600397"><time>2026-05-02T18:28:10Z</time></trkpt>
</trkseg></trk>
<trk>
<name>louhe3</name>
<cmt>s</cmt>
<desc>Hermée Chemin n°3 Rue Haie Martin</desc>
<link href="https://chemins.be/hermee/chemin/3"/><trkseg>
<trkpt lat="50.702951" lon="5.600397"><time>2026-05-02T18:28:10Z</time></trkpt>
<trkpt lat="50.704550" lon="5.600485"><time>2026-05-02T18:38:10Z</time></trkpt>
<trkpt lat="50.706637" lon="5.602167"><time>2026-05-02T18:48:10Z</time></trkpt>
<trkpt lat="50.708670" lon="5.602115"><time>2026-05-02T18:58:10Z</time></trkpt>
</trkseg></trk>
<trk>
<name>louhe3</name>
<cmt>d</cmt>
<desc>Hermée Chemin n°3 Rue Haie Martin</desc>
<link href="https://chemins.be/hermee/chemin/3"/><trkseg>
<trkpt lat="50.708670" lon="5.602115"><time>2026-05-02T18:58:10Z</time></trkpt>
<trkpt lat="50.711021" lon="5.602174"><time>2026-05-02T19:08:10Z</time></trkpt>
</trkseg></trk>
<trk>
<name>louhe3</name>
<cmt>q</cmt>
<desc>Hermée Chemin n°3 Rue Haie Martin</desc>
<link href="https://chemins.be/hermee/chemin/3"/><trkseg>
<trkpt lat="50.711021" lon="5.602174"><time>2026-05-02T19:08:10Z</time></trkpt>
<trkpt lat="50.713496" lon="5.602236"><time>2026-05-02T19:18:10Z</time></trkpt>
</trkseg></trk>
<trk>
<name>louhe3</name>
<cmt>s</cmt>
<desc>Hermée Chemin n°3 Rue Haie Martin</desc>
<link href="https://chemins.be/hermee/chemin/3"/><trkseg>
<trkpt lat="50.713496" lon="5.602236"><time>2026-05-02T19:18:10Z</time></trkpt>
<trkpt lat="50.714837" lon="5.603043"><time>2026-05-02T19:28:10Z</time></trkpt>
<trkpt lat="50.715707" lon="5.603558"><time>2026-05-02T19:38:10Z</time></trkpt>
<trkpt lat="50.716750" lon="5.604245"><time>2026-05-02T19:48:10Z</time></trkpt>
<trkpt lat="50.717207" lon="5.605163"><time>2026-05-02T19:58:10Z</time></trkpt>
</trkseg></trk>
<trk>
<name>louhe3</name>
<cmt>v</cmt>
<desc>Hermée Chemin n°3 Rue Haie Martin</desc>
<link href="https://chemins.be/hermee/chemin/3"/><trkseg>
<trkpt lat="50.717207" lon="5.605163"><time>2026-05-02T19:58:10Z</time></trkpt>
<trkpt lat="50.717746" lon="5.605386"><time>2026-05-02T20:08:10Z</time></trkpt>
<trkpt lat="50.718242" lon="5.604346"><time>2026-05-02T20:18:10Z</time></trkpt>
<trkpt lat="50.719431" lon="5.603229"><time>2026-05-02T20:28:10Z</time></trkpt>
<trkpt lat="50.721032" lon="5.602539"><time>2026-05-02T20:38:10Z</time></trkpt>
<trkpt lat="50.721995" lon="5.600913"><time>2026-05-02T20:48:10Z</time></trkpt>
<trkpt lat="50.723232" lon="5.598829"><time>2026-05-02T20:58:10Z</time></trkpt>
</trkseg>
</trk>
<trk>
<name>louhe30</name>
<cmt>s</cmt>
<desc>Hermée Sentier n°30 </desc>
<link href="https://chemins.be/hermee/sentier/30"/><trkseg>
<trkpt lat="50.705100" lon="5.618116"><time>2026-05-02T18:08:10Z</time></trkpt>
<trkpt lat="50.702572" lon="5.618302"><time>2026-05-02T18:18:10Z</time></trkpt>
</trkseg>
</trk>
<trk>
<name>louhe31</name>
<cmt>v</cmt>
<desc>Hermée Sentier n°31 </desc>
<link href="https://chemins.be/hermee/sentier/31"/><trkseg>
<trkpt lat="50.711743" lon="5.622963"><time>2026-05-02T18:08:10Z</time></trkpt>
<trkpt lat="50.711569" lon="5.623482"><time>2026-05-02T18:18:10Z</time></trkpt>
<trkpt lat="50.710499" lon="5.626135"><time>2026-05-02T18:28:10Z</time></trkpt>
<trkpt lat="50.709895" lon="5.627388"><time>2026-05-02T18:38:10Z</time></trkpt>
</trkseg>
</trk>
<trk>
<name>louhe32</name>
<cmt>q</cmt>
<desc>Hermée Sentier n°32 </desc>
<link href="https://chemins.be/hermee/sentier/32"/><trkseg>
<trkpt lat="50.702368" lon="5.600272"><time>2026-05-02T18:08:10Z</time></trkpt>
<trkpt lat="50.701515" lon="5.600581"><time>2026-05-02T18:18:10Z</time></trkpt>
<trkpt lat="50.700389" lon="5.600624"><time>2026-05-02T18:28:10Z</time></trkpt>
</trkseg>
</trk>
<trk>
<name>louhe3bis</name>
<cmt>q</cmt>
<desc>Hermée Chemin n°3bis </desc>
<link href="https://chemins.be/hermee/chemin/3bis"/><trkseg>
<trkpt lat="50.717374" lon="5.605439"><time>2026-05-02T18:08:10Z</time></trkpt>
<trkpt lat="50.717632" lon="5.605739"><time>2026-05-02T18:18:10Z</time></trkpt>
<trkpt lat="50.717958" lon="5.605589"><time>2026-05-02T18:28:10Z</time></trkpt>
<trkpt lat="50.723874" lon="5.608914"><time>2026-05-02T18:38:10Z</time></trkpt>
<trkpt lat="50.726182" lon="5.609349"><time>2026-05-02T18:48:10Z</time></trkpt>
</trkseg>
</trk>
<trk>
<name>louhe4</name>
<cmt>s</cmt>
<desc>Hermée Chemin n°4 Chemin du Fond d'Asse / Rue Grand Aaz / Chemin de Launis / Rue Rensotte</desc>
<link href="https://chemins.be/hermee/chemin/4"/><trkseg>
<trkpt lat="50.713511" lon="5.598156"><time>2026-05-02T18:08:10Z</time></trkpt>
<trkpt lat="50.713565" lon="5.602105"><time>2026-05-02T18:18:10Z</time></trkpt>
</trkseg></trk>
<trk>
<name>louhe4</name>
<cmt>v</cmt>
<desc>Hermée Chemin n°4 Chemin du Fond d'Asse / Rue Grand Aaz / Chemin de Launis / Rue Rensotte</desc>
<link href="https://chemins.be/hermee/chemin/4"/><trkseg>
<trkpt lat="50.713565" lon="5.602105"><time>2026-05-02T18:18:10Z</time></trkpt>
<trkpt lat="50.714346" lon="5.604342"><time>2026-05-02T18:28:10Z</time></trkpt>
</trkseg></trk>
<trk>
<name>louhe4</name>
<cmt>r</cmt>
<desc>Hermée Chemin n°4 Chemin du Fond d'Asse / Rue Grand Aaz / Chemin de Launis / Rue Rensotte</desc>
<link href="https://chemins.be/hermee/chemin/4"/><trkseg>
<trkpt lat="50.714346" lon="5.604342"><time>2026-05-02T18:28:10Z</time></trkpt>
<trkpt lat="50.714944" lon="5.606187"><time>2026-05-02T18:38:10Z</time></trkpt>
<trkpt lat="50.715556" lon="5.607410"><time>2026-05-02T18:48:10Z</time></trkpt>
<trkpt lat="50.715959" lon="5.608941"><time>2026-05-02T18:58:10Z</time></trkpt>
</trkseg></trk>
<trk>
<name>louhe4</name>
<cmt>v</cmt>
<desc>Hermée Chemin n°4 Chemin du Fond d'Asse / Rue Grand Aaz / Chemin de Launis / Rue Rensotte</desc>
<link href="https://chemins.be/hermee/chemin/4"/><trkseg>
<trkpt lat="50.715959" lon="5.608941"><time>2026-05-02T18:58:10Z</time></trkpt>
<trkpt lat="50.716841" lon="5.609540"><time>2026-05-02T19:08:10Z</time></trkpt>
<trkpt lat="50.717357" lon="5.610715"><time>2026-05-02T19:18:10Z</time></trkpt>
<trkpt lat="50.718858" lon="5.612737"><time>2026-05-02T19:28:10Z</time></trkpt>
<trkpt lat="50.719429" lon="5.613890"><time>2026-05-02T19:38:10Z</time></trkpt>
<trkpt lat="50.722713" lon="5.618171"><time>2026-05-02T19:48:10Z</time></trkpt>
</trkseg>
</trk>
<trk>
<name>louhe6</name>
<cmt>q</cmt>
<desc>Hermée Chemin n°6 Chemin de Tilice</desc>
<link href="https://chemins.be/hermee/chemin/6"/><trkseg>
<trkpt lat="50.704878" lon="5.617141"><time>2026-05-02T18:08:10Z</time></trkpt>
<trkpt lat="50.706081" lon="5.613653"><time>2026-05-02T18:18:10Z</time></trkpt>
<trkpt lat="50.706281" lon="5.613073"><time>2026-05-02T18:28:10Z</time></trkpt>
<trkpt lat="50.706313" lon="5.612515"><time>2026-05-02T18:38:10Z</time></trkpt>
<trkpt lat="50.706862" lon="5.611047"><time>2026-05-02T18:48:10Z</time></trkpt>
<trkpt lat="50.707818" lon="5.610001"><time>2026-05-02T18:58:10Z</time></trkpt>
</trkseg></trk>
<trk>
<name>louhe6</name>
<cmt>v</cmt>
<desc>Hermée Chemin n°6 Chemin de Tilice</desc>
<link href="https://chemins.be/hermee/chemin/6"/><trkseg>
<trkpt lat="50.707818" lon="5.610001"><time>2026-05-02T18:58:10Z</time></trkpt>
<trkpt lat="50.708769" lon="5.609078"><time>2026-05-02T19:08:10Z</time></trkpt>
<trkpt lat="50.709042" lon="5.607619"><time>2026-05-02T19:18:10Z</time></trkpt>
<trkpt lat="50.709001" lon="5.605205"><time>2026-05-02T19:28:10Z</time></trkpt>
<trkpt lat="50.708783" lon="5.604089"><time>2026-05-02T19:38:10Z</time></trkpt>
<trkpt lat="50.708742" lon="5.602255"><time>2026-05-02T19:48:10Z</time></trkpt>
<trkpt lat="50.708750" lon="5.600013"><time>2026-05-02T19:58:10Z</time></trkpt>
<trkpt lat="50.708824" lon="5.599396"><time>2026-05-02T20:08:10Z</time></trkpt>
</trkseg>
</trk>
<trk>
<name>louhe8</name>
<cmt>v</cmt>
<desc>Hermée Sentier n°8 </desc>
<link href="https://chemins.be/hermee/sentier/8"/><trkseg>
<trkpt lat="50.709257" lon="5.623607"><time>2026-05-02T18:08:10Z</time></trkpt>
<trkpt lat="50.709845" lon="5.623411"><time>2026-05-02T18:18:10Z</time></trkpt>
</trkseg></trk>
<trk>
<name>louhe8</name>
<cmt>q</cmt>
<desc>Hermée Sentier n°8 </desc>
<link href="https://chemins.be/hermee/sentier/8"/><trkseg>
<trkpt lat="50.709845" lon="5.623411"><time>2026-05-02T18:18:10Z</time></trkpt>
<trkpt lat="50.710148" lon="5.623311"><time>2026-05-02T18:28:10Z</time></trkpt>
<trkpt lat="50.711167" lon="5.622993"><time>2026-05-02T18:38:10Z</time></trkpt>
</trkseg>
</trk>
<trk>
<name>louhei1</name>
<cmt>v</cmt>
<desc>Hermée Sentier n°i1 </desc>
<link href="https://chemins.be/hermee/sentier/i1"/><trkseg>
<trkpt lat="50.703558" lon="5.619045"><time>2026-05-02T18:08:10Z</time></trkpt>
<trkpt lat="50.702939" lon="5.620586"><time>2026-05-02T18:18:10Z</time></trkpt>
</trkseg>
</trk>
<trk>
<name>louhei2</name>
<cmt>v</cmt>
<desc>Hermée Sentier n°i2 </desc>
<link href="https://chemins.be/hermee/sentier/i2"/><trkseg>
<trkpt lat="50.704212" lon="5.623465"><time>2026-05-02T18:08:10Z</time></trkpt>
<trkpt lat="50.704168" lon="5.623365"><time>2026-05-02T18:18:10Z</time></trkpt>
<trkpt lat="50.703225" lon="5.622491"><time>2026-05-02T18:28:10Z</time></trkpt>
</trkseg>
</trk>
<trk>
<name>louhei3</name>
<cmt>v</cmt>
<desc>Hermée Sentier n°i3 </desc>
<link href="https://chemins.be/hermee/sentier/i3"/><trkseg>
<trkpt lat="50.708323" lon="5.621169"><time>2026-05-02T18:08:10Z</time></trkpt>
<trkpt lat="50.708179" lon="5.621671"><time>2026-05-02T18:18:10Z</time></trkpt>
<trkpt lat="50.708111" lon="5.621937"><time>2026-05-02T18:28:10Z</time></trkpt>
<trkpt lat="50.708214" lon="5.622658"><time>2026-05-02T18:38:10Z</time></trkpt>
</trkseg>
</trk>
<trk>
<name>louhei4</name>
<cmt>v</cmt>
<desc>Hermée Chemin n°i4 </desc>
<link href="https://chemins.be/hermee/chemin/i4"/><trkseg>
<trkpt lat="50.703545" lon="5.608966"><time>2026-05-02T18:08:10Z</time></trkpt>
<trkpt lat="50.705461" lon="5.605050"><time>2026-05-02T18:18:10Z</time></trkpt>
</trkseg>
</trk>
<trk>
<name>louhei5</name>
<cmt>v</cmt>
<desc>Hermée Sentier n°i5 </desc>
<link href="https://chemins.be/hermee/sentier/i5"/><trkseg>
<trkpt lat="50.711758" lon="5.612468"><time>2026-05-02T18:08:10Z</time></trkpt>
<trkpt lat="50.711509" lon="5.612979"><time>2026-05-02T18:18:10Z</time></trkpt>
</trkseg>
</trk>
<trk>
<name>louhei6</name>
<cmt>v</cmt>
<desc>Hermée Chemin n°i6 Chemin du Fond d'Asse</desc>
<link href="https://chemins.be/hermee/chemin/i6"/><trkseg>
<trkpt lat="50.713568" lon="5.602323"><time>2026-05-02T18:08:10Z</time></trkpt>
<trkpt lat="50.709181" lon="5.598376"><time>2026-05-02T18:18:10Z</time></trkpt>
</trkseg>
</trk>
<trk>
<name>louheLv820B</name>
<cmt>q</cmt>
<desc>Hermée Chemin n°Lv820B </desc>
<link href="https://chemins.be/hermee/chemin/Lv820B"/><trkseg>
<trkpt lat="50.700765" lon="5.625221"><time>2026-05-02T18:08:10Z</time></trkpt>
<trkpt lat="50.700947" lon="5.625137"><time>2026-05-02T18:18:10Z</time></trkpt>
<trkpt lat="50.702821" lon="5.625032"><time>2026-05-02T18:28:10Z</time></trkpt>
<trkpt lat="50.704395" lon="5.623261"><time>2026-05-02T18:38:10Z</time></trkpt>
</trkseg></trk>
<trk>
<name>louheLv820B</name>
<cmt>s</cmt>
<desc>Hermée Chemin n°Lv820B </desc>
<link href="https://chemins.be/hermee/chemin/Lv820B"/><trkseg>
<trkpt lat="50.704395" lon="5.623261"><time>2026-05-02T18:38:10Z</time></trkpt>
<trkpt lat="50.704944" lon="5.623266"><time>2026-05-02T18:48:10Z</time></trkpt>
<trkpt lat="50.705991" lon="5.624004"><time>2026-05-02T18:58:10Z</time></trkpt>
<trkpt lat="50.706648" lon="5.624466"><time>2026-05-02T19:08:10Z</time></trkpt>
</trkseg></trk>
<trk>
<name>louheLv820B</name>
<cmt>q</cmt>
<desc>Hermée Chemin n°Lv820B </desc>
<link href="https://chemins.be/hermee/chemin/Lv820B"/><trkseg>
<trkpt lat="50.706648" lon="5.624466"><time>2026-05-02T19:08:10Z</time></trkpt>
<trkpt lat="50.707192" lon="5.624394"><time>2026-05-02T19:18:10Z</time></trkpt>
<trkpt lat="50.707926" lon="5.624038"><time>2026-05-02T19:28:10Z</time></trkpt>
</trkseg></trk>
<trk>
<name>louheLv820B</name>
<cmt>s</cmt>
<desc>Hermée Chemin n°Lv820B </desc>
<link href="https://chemins.be/hermee/chemin/Lv820B"/><trkseg>
<trkpt lat="50.707926" lon="5.624038"><time>2026-05-02T19:28:10Z</time></trkpt>
<trkpt lat="50.709241" lon="5.623377"><time>2026-05-02T19:38:10Z</time></trkpt>
</trkseg></trk>
<trk>
<name>louheLv820B</name>
<cmt>q</cmt>
<desc>Hermée Chemin n°Lv820B </desc>
<link href="https://chemins.be/hermee/chemin/Lv820B"/><trkseg>
<trkpt lat="50.709241" lon="5.623377"><time>2026-05-02T19:38:10Z</time></trkpt>
<trkpt lat="50.709407" lon="5.623173"><time>2026-05-02T19:48:10Z</time></trkpt>
<trkpt lat="50.709880" lon="5.621875"><time>2026-05-02T19:58:10Z</time></trkpt>
<trkpt lat="50.710398" lon="5.621187"><time>2026-05-02T20:08:10Z</time></trkpt>
<trkpt lat="50.711398" lon="5.621359"><time>2026-05-02T20:18:10Z</time></trkpt>
<trkpt lat="50.711876" lon="5.621238"><time>2026-05-02T20:28:10Z</time></trkpt>
<trkpt lat="50.712301" lon="5.620189"><time>2026-05-02T20:38:10Z</time></trkpt>
</trkseg></trk>
<trk>
<name>louheLv820B</name>
<cmt>s</cmt>
<desc>Hermée Chemin n°Lv820B </desc>
<link href="https://chemins.be/hermee/chemin/Lv820B"/><trkseg>
<trkpt lat="50.712301" lon="5.620189"><time>2026-05-02T20:38:10Z</time></trkpt>
<trkpt lat="50.712659" lon="5.619213"><time>2026-05-02T20:48:10Z</time></trkpt>
<trkpt lat="50.714931" lon="5.619539"><time>2026-05-02T20:58:10Z</time></trkpt>
<trkpt lat="50.715887" lon="5.619625"><time>2026-05-02T21:08:10Z</time></trkpt>
<trkpt lat="50.717181" lon="5.620466"><time>2026-05-02T21:18:10Z</time></trkpt>
</trkseg></trk>
<trk>
<name>louheLv820B</name>
<cmt>q</cmt>
<desc>Hermée Chemin n°Lv820B </desc>
<link href="https://chemins.be/hermee/chemin/Lv820B"/><trkseg>
<trkpt lat="50.717181" lon="5.620466"><time>2026-05-02T21:18:10Z</time></trkpt>
<trkpt lat="50.717884" lon="5.620386"><time>2026-05-02T21:28:10Z</time></trkpt>
<trkpt lat="50.721550" lon="5.619968"><time>2026-05-02T21:38:10Z</time></trkpt>
</trkseg>
</trk>
</gpx>